createdAt,value
2023-05-14T00:01:52.070Z,10.60
2023-05-14T00:04:20.658Z,10.60
2023-05-14T00:06:50.396Z,10.60
2023-05-14T00:09:18.837Z,10.60
2023-05-14T00:11:47.249Z,10.60
2023-05-14T00:14:15.654Z,10.50
2023-05-14T00:16:44.258Z,10.50
2023-05-14T00:19:12.829Z,10.50
2023-05-14T00:21:41.315Z,10.50
2023-05-14T00:24:11.200Z,10.50
2023-05-14T00:26:39.725Z,10.50
2023-05-14T00:29:08.175Z,10.50
2023-05-14T00:31:36.770Z,10.50
2023-05-14T00:34:05.377Z,10.50
2023-05-14T00:36:33.795Z,10.40
2023-05-14T00:39:02.190Z,10.40
2023-05-14T00:41:32.117Z,10.40
2023-05-14T00:44:00.625Z,10.40
2023-05-14T00:46:29.671Z,10.40
2023-05-14T00:48:58.726Z,10.40
2023-05-14T00:51:27.584Z,10.30
2023-05-14T00:53:56.497Z,10.30
2023-05-14T00:56:25.785Z,10.30
2023-05-14T00:58:55.519Z,10.30
2023-05-14T01:01:24.121Z,10.30
2023-05-14T01:03:54.265Z,10.30
2023-05-14T01:06:29.605Z,10.30
2023-05-14T01:09:04.571Z,10.30
2023-05-14T01:11:41.067Z,10.30
2023-05-14T01:14:22.522Z,10.30
2023-05-14T01:16:54.154Z,10.20
2023-05-14T01:19:31.182Z,10.20
2023-05-14T01:22:00.915Z,10.20
2023-05-14T01:24:29.261Z,10.20
2023-05-14T01:27:03.000Z,10.20
2023-05-14T01:29:34.573Z,10.10
2023-05-14T01:32:07.782Z,10.10
2023-05-14T01:34:39.054Z,10.10
2023-05-14T01:37:11.296Z,10.10
2023-05-14T01:39:40.874Z,10.10
2023-05-14T01:42:10.322Z,10.00
2023-05-14T01:44:38.960Z,10.00
2023-05-14T01:47:07.925Z,10.00
2023-05-14T01:49:37.478Z,10.00
2023-05-14T01:52:06.329Z,9.90
2023-05-14T01:54:36.089Z,9.90
2023-05-14T01:57:04.669Z,9.90
2023-05-14T01:59:33.112Z,9.80
2023-05-14T02:02:01.628Z,9.80
2023-05-14T02:04:29.956Z,9.80
2023-05-14T02:06:58.527Z,9.80
2023-05-14T02:09:26.899Z,9.70
2023-05-14T02:11:56.533Z,9.70
2023-05-14T02:14:24.984Z,9.70
2023-05-14T02:16:53.422Z,9.70
2023-05-14T02:19:21.856Z,9.70
2023-05-14T02:21:51.580Z,9.70
2023-05-14T02:24:20.170Z,9.70
2023-05-14T02:26:48.828Z,9.70
2023-05-14T02:29:18.493Z,9.70
2023-05-14T02:31:46.867Z,9.70
2023-05-14T02:34:15.721Z,9.70
2023-05-14T02:36:44.112Z,9.70
2023-05-14T02:39:12.598Z,9.70
2023-05-14T02:41:40.946Z,9.70
2023-05-14T02:44:09.311Z,9.60
2023-05-14T02:46:39.009Z,9.70
2023-05-14T02:49:07.724Z,9.70
2023-05-14T02:51:36.595Z,9.70
2023-05-14T02:54:05.202Z,9.70
2023-05-14T02:56:33.769Z,9.70
2023-05-14T02:59:03.444Z,9.70
2023-05-14T03:01:32.205Z,9.80
2023-05-14T03:04:02.366Z,9.80
2023-05-14T03:06:31.309Z,9.80
2023-05-14T03:08:59.688Z,9.80
2023-05-14T03:11:28.134Z,9.90
2023-05-14T03:13:56.517Z,9.90
2023-05-14T03:16:24.983Z,9.90
2023-05-14T03:18:53.517Z,9.90
2023-05-14T03:21:23.347Z,9.90
2023-05-14T03:23:51.846Z,9.90
2023-05-14T03:26:21.983Z,10.00
2023-05-14T03:28:53.508Z,10.00
2023-05-14T03:31:21.987Z,10.00
2023-05-14T03:33:50.477Z,10.00
2023-05-14T03:36:19.040Z,10.00
2023-05-14T03:38:50.648Z,10.00
2023-05-14T03:41:20.112Z,10.10
2023-05-14T03:43:48.544Z,10.10
2023-05-14T03:46:16.983Z,10.10
2023-05-14T03:48:45.550Z,10.10
2023-05-14T03:51:14.348Z,10.20
2023-05-14T03:53:42.861Z,10.20
2023-05-14T03:56:12.702Z,10.20
2023-05-14T03:58:41.132Z,10.20
2023-05-14T04:01:09.503Z,10.20
2023-05-14T04:03:38.008Z,10.30
2023-05-14T04:06:06.909Z,10.30
2023-05-14T04:08:36.158Z,10.30
2023-05-14T04:11:04.639Z,10.30
2023-05-14T04:13:34.378Z,10.30
2023-05-14T04:16:03.006Z,10.30
2023-05-14T04:18:35.100Z,10.30
2023-05-14T04:21:04.025Z,10.40
2023-05-14T04:23:32.941Z,10.40
2023-05-14T04:26:01.447Z,10.40
2023-05-14T04:28:29.815Z,10.40
2023-05-14T04:30:59.491Z,10.40
2023-05-14T04:33:27.955Z,10.40
2023-05-14T04:35:56.689Z,10.50
2023-05-14T04:38:25.068Z,10.50
2023-05-14T04:40:53.448Z,10.50
2023-05-14T04:43:22.225Z,10.60
2023-05-14T04:45:51.593Z,10.60
2023-05-14T04:48:21.762Z,10.60
2023-05-14T04:50:50.290Z,10.70
2023-05-14T04:53:18.806Z,10.70
2023-05-14T04:55:47.118Z,10.80
2023-05-14T04:58:15.558Z,10.80
2023-05-14T05:00:43.938Z,10.80
2023-05-14T05:03:12.713Z,10.80
2023-05-14T05:05:42.627Z,10.80
2023-05-14T05:08:11.569Z,10.80
2023-05-14T05:10:39.937Z,10.90
2023-05-14T05:13:08.261Z,10.90
2023-05-14T05:15:36.668Z,10.90
2023-05-14T05:18:05.357Z,11.00
2023-05-14T05:20:33.778Z,11.00
2023-05-14T05:23:03.469Z,11.00
2023-05-14T05:25:32.499Z,11.00
2023-05-14T05:28:00.860Z,11.10
2023-05-14T05:30:30.255Z,11.10
2023-05-14T05:32:58.851Z,11.10
2023-05-14T05:35:27.256Z,11.10
2023-05-14T05:37:55.590Z,11.20
2023-05-14T05:40:25.708Z,11.20
2023-05-14T05:42:54.185Z,11.20
2023-05-14T05:45:22.804Z,11.20
2023-05-14T05:47:51.434Z,11.30
2023-05-14T05:50:20.244Z,11.30
2023-05-14T05:52:48.714Z,11.30
2023-05-14T05:55:17.128Z,11.40
2023-05-14T05:57:46.844Z,11.40
2023-05-14T06:00:17.002Z,11.40
2023-05-14T06:02:45.684Z,11.40
2023-05-14T06:05:14.474Z,11.40
2023-05-14T06:07:42.877Z,11.50
2023-05-14T06:10:11.683Z,11.50
2023-05-14T06:12:40.530Z,11.50
2023-05-14T06:15:12.218Z,11.50
2023-05-14T06:17:41.048Z,11.60
2023-05-14T06:20:10.113Z,11.60
2023-05-14T06:22:38.920Z,11.70
2023-05-14T06:25:08.099Z,11.70
2023-05-14T06:27:36.500Z,11.70
2023-05-14T06:30:05.311Z,11.80
2023-05-14T06:32:35.046Z,11.80
2023-05-14T06:35:04.172Z,11.80
2023-05-14T06:37:32.556Z,11.90
2023-05-14T06:40:01.603Z,11.90
2023-05-14T06:42:30.071Z,11.90
2023-05-14T06:44:59.841Z,11.90
2023-05-14T06:47:28.320Z,12.00
2023-05-14T06:49:58.750Z,12.00
2023-05-14T06:52:27.991Z,12.00
2023-05-14T06:54:56.325Z,12.00
2023-05-14T06:57:24.793Z,12.10
2023-05-14T06:59:53.305Z,12.10
2023-05-14T07:02:21.769Z,12.20
2023-05-14T07:04:50.334Z,12.20
2023-05-14T07:07:21.465Z,12.30
2023-05-14T07:09:49.862Z,12.40
2023-05-14T07:12:18.197Z,12.50
2023-05-14T07:14:46.881Z,12.50
2023-05-14T07:17:15.446Z,12.60
2023-05-14T07:19:43.966Z,12.70
2023-05-14T07:22:12.411Z,12.70
2023-05-14T07:24:42.191Z,12.70
2023-05-14T07:27:10.959Z,12.80
2023-05-14T07:29:39.324Z,12.80
2023-05-14T07:32:07.814Z,12.90
2023-05-14T07:34:36.134Z,12.90
2023-05-14T07:37:05.006Z,12.90
2023-05-14T07:39:33.890Z,12.90
2023-05-14T07:42:03.611Z,13.00
2023-05-14T07:44:32.030Z,13.00
2023-05-14T07:47:00.620Z,13.10
2023-05-14T07:49:29.155Z,13.10
2023-05-14T07:51:57.493Z,13.20
2023-05-14T07:54:26.047Z,13.30
2023-05-14T07:56:54.526Z,13.30
2023-05-14T07:59:24.164Z,13.40
2023-05-14T08:01:52.626Z,13.40
2023-05-14T08:04:23.614Z,13.40
2023-05-14T08:06:52.437Z,13.50
2023-05-14T08:09:20.807Z,13.50
2023-05-14T08:11:49.216Z,13.50
2023-05-14T08:14:17.605Z,13.50
2023-05-14T08:16:47.826Z,13.50
2023-05-14T08:19:17.002Z,13.50
2023-05-14T08:21:45.420Z,13.60
2023-05-14T08:24:14.234Z,13.60
2023-05-14T08:26:42.996Z,13.60
2023-05-14T08:29:12.982Z,13.70
2023-05-14T08:31:43.289Z,13.70
2023-05-14T08:34:13.000Z,13.70
2023-05-14T08:36:41.476Z,13.70
2023-05-14T08:39:09.969Z,13.70
2023-05-14T08:41:38.754Z,13.70
2023-05-14T08:44:13.602Z,13.70
2023-05-14T08:46:42.982Z,13.70
2023-05-14T08:49:26.190Z,13.80
2023-05-14T08:51:55.013Z,13.80
2023-05-14T08:54:24.753Z,13.90
2023-05-14T08:56:53.615Z,13.90
2023-05-14T08:59:22.088Z,14.00
2023-05-14T09:01:54.395Z,14.00
2023-05-14T09:04:25.995Z,14.10
2023-05-14T09:06:56.187Z,14.20
2023-05-14T09:09:24.959Z,14.30
2023-05-14T09:11:54.503Z,14.40
2023-05-14T09:14:24.446Z,14.60
2023-05-14T09:16:53.120Z,14.70
2023-05-14T09:19:23.563Z,14.80
2023-05-14T09:21:52.210Z,14.90
2023-05-14T09:24:22.426Z,15.00
2023-05-14T09:26:52.889Z,15.20
2023-05-14T09:29:21.594Z,15.20
2023-05-14T09:31:52.799Z,15.30
2023-05-14T09:34:27.867Z,15.40
2023-05-14T09:36:58.407Z,15.40
2023-05-14T09:39:27.555Z,15.40
2023-05-14T09:41:57.052Z,15.40
2023-05-14T09:44:26.082Z,15.30
2023-05-14T09:46:55.126Z,15.30
2023-05-14T09:49:23.962Z,15.30
2023-05-14T09:51:53.706Z,15.20
2023-05-14T09:54:22.139Z,15.20
2023-05-14T09:56:55.483Z,15.10
2023-05-14T09:59:24.347Z,15.10
2023-05-14T10:01:54.260Z,15.10
2023-05-14T10:04:24.424Z,15.10
2023-05-14T10:06:55.670Z,15.10
2023-05-14T10:09:26.465Z,15.10
2023-05-14T10:11:59.619Z,15.10
2023-05-14T10:14:34.705Z,15.10
2023-05-14T10:17:04.405Z,15.20
2023-05-14T10:19:35.692Z,15.20
2023-05-14T10:22:09.003Z,15.20
2023-05-14T10:24:39.144Z,15.20
2023-05-14T10:27:07.948Z,15.20
2023-05-14T10:29:38.477Z,15.20
2023-05-14T10:32:08.056Z,15.10
2023-05-14T10:34:44.212Z,15.10
2023-05-14T10:37:16.567Z,15.10
2023-05-14T10:39:47.314Z,15.10
2023-05-14T10:42:18.950Z,15.00
2023-05-14T10:44:54.183Z,15.00
2023-05-14T10:47:23.492Z,14.90
2023-05-14T10:49:55.991Z,15.00
2023-05-14T10:52:26.395Z,14.90
2023-05-14T10:54:57.441Z,14.90
2023-05-14T10:57:27.662Z,15.00
2023-05-14T10:59:57.501Z,15.10
2023-05-14T11:02:28.387Z,15.10
2023-05-14T11:05:03.770Z,15.10
2023-05-14T11:07:35.139Z,15.10
2023-05-14T11:10:08.906Z,14.90
2023-05-14T11:12:39.722Z,14.90
2023-05-14T11:15:10.524Z,14.80
2023-05-14T11:17:40.444Z,14.70
2023-05-14T11:20:09.979Z,14.60
2023-05-14T11:22:41.782Z,14.60
2023-05-14T11:25:11.130Z,14.50
2023-05-14T11:27:40.535Z,14.50
2023-05-14T11:30:14.738Z,14.40
2023-05-14T11:32:44.779Z,14.40
2023-05-14T11:35:13.576Z,14.40
2023-05-14T11:37:43.414Z,14.40
2023-05-14T11:40:17.436Z,14.30
2023-05-14T11:42:46.339Z,14.30
2023-05-14T11:45:15.570Z,14.30
2023-05-14T11:47:44.182Z,14.20
2023-05-14T11:50:12.837Z,14.20
2023-05-14T11:52:43.387Z,14.10
2023-05-14T11:55:13.435Z,14.10
2023-05-14T11:57:42.262Z,14.10
2023-05-14T12:00:13.590Z,14.10
2023-05-14T12:02:42.244Z,14.10
2023-05-14T12:05:14.585Z,14.10
2023-05-14T12:07:46.653Z,14.10
2023-05-14T12:10:15.172Z,14.00
2023-05-14T12:12:48.254Z,14.00
2023-05-14T12:15:17.724Z,14.00
2023-05-14T12:17:51.984Z,14.00
2023-05-14T12:20:20.706Z,14.00
2023-05-14T12:22:50.587Z,13.90
2023-05-14T12:25:19.078Z,14.00
2023-05-14T12:27:47.514Z,13.90
2023-05-14T12:30:21.790Z,13.90
2023-05-14T12:33:02.626Z,13.90
2023-05-14T12:35:31.086Z,14.00
2023-05-14T12:38:00.799Z,14.00
2023-05-14T12:40:29.116Z,13.90
2023-05-14T12:42:57.509Z,14.00
2023-05-14T12:45:26.248Z,14.00
2023-05-14T12:47:54.799Z,14.00
2023-05-14T12:50:23.689Z,14.00
2023-05-14T12:52:52.390Z,14.00
2023-05-14T12:55:23.415Z,14.00
2023-05-14T12:57:51.853Z,14.00
2023-05-14T13:00:20.572Z,14.00
2023-05-14T13:02:49.096Z,14.00
2023-05-14T13:05:17.546Z,14.00
2023-05-14T13:07:46.026Z,14.00
2023-05-14T13:10:14.351Z,14.00
2023-05-14T13:12:44.040Z,14.00
2023-05-14T13:15:12.961Z,14.00
2023-05-14T13:17:41.514Z,14.00
2023-05-14T13:20:10.699Z,14.00
2023-05-14T13:22:39.202Z,14.00
2023-05-14T13:25:09.171Z,14.00
2023-05-14T13:27:37.701Z,14.00
2023-05-14T13:30:08.411Z,13.90
2023-05-14T13:32:36.831Z,14.00
2023-05-14T13:35:05.728Z,13.90
2023-05-14T13:37:34.076Z,13.90
2023-05-14T13:40:02.525Z,13.90
2023-05-14T13:42:30.821Z,13.90
2023-05-14T13:44:59.948Z,13.90
2023-05-14T13:47:29.787Z,13.90
2023-05-14T13:49:58.308Z,13.90
2023-05-14T13:52:26.839Z,13.80
2023-05-14T13:54:55.238Z,13.80
2023-05-14T13:57:24.195Z,13.80
2023-05-14T13:59:52.610Z,13.80
2023-05-14T14:02:21.137Z,13.70
2023-05-14T14:04:50.881Z,13.70
2023-05-14T14:07:19.377Z,13.70
2023-05-14T14:09:47.847Z,13.70
2023-05-14T14:12:16.330Z,13.70
2023-05-14T14:14:44.841Z,13.60
2023-05-14T14:17:13.337Z,13.60
2023-05-14T14:19:41.816Z,13.60
2023-05-14T14:22:12.962Z,13.60
2023-05-14T14:24:41.596Z,13.60
2023-05-14T14:27:10.354Z,13.60
2023-05-14T14:29:38.837Z,13.60
2023-05-14T14:32:07.954Z,13.60
2023-05-14T14:34:36.470Z,13.60
2023-05-14T14:37:04.950Z,13.60
2023-05-14T14:39:34.657Z,13.50
2023-05-14T14:42:03.106Z,13.60
2023-05-14T14:44:31.488Z,13.50
2023-05-14T14:46:59.966Z,13.50
2023-05-14T14:49:28.773Z,13.50
2023-05-14T14:51:57.422Z,13.50
2023-05-14T14:54:25.841Z,13.50
2023-05-14T14:56:55.620Z,13.50
2023-05-14T14:59:24.012Z,13.50
2023-05-14T15:01:52.633Z,13.50
2023-05-14T15:04:21.071Z,13.50
2023-05-14T15:06:49.407Z,13.50
2023-05-14T15:09:17.829Z,13.50
2023-05-14T15:11:47.230Z,13.50
2023-05-14T15:14:16.987Z,13.50
2023-05-14T15:16:45.446Z,13.50
2023-05-14T15:19:13.946Z,13.40
2023-05-14T15:21:42.627Z,13.40
2023-05-14T15:24:13.708Z,13.40
2023-05-14T15:26:42.348Z,13.40
2023-05-14T15:29:10.810Z,13.30
2023-05-14T15:31:41.483Z,13.30
2023-05-14T15:34:10.132Z,13.20
2023-05-14T15:36:38.568Z,13.20
2023-05-14T15:39:10.342Z,13.20
2023-05-14T15:41:38.878Z,13.20
2023-05-14T15:44:07.304Z,13.20
2023-05-14T15:46:35.846Z,13.20
2023-05-14T15:49:06.218Z,13.10
2023-05-14T15:51:35.205Z,13.10
2023-05-14T15:54:03.603Z,13.10
2023-05-14T15:56:32.534Z,13.10
2023-05-14T15:59:00.938Z,13.10
2023-05-14T16:01:29.359Z,13.10
2023-05-14T16:03:58.880Z,13.10
2023-05-14T16:06:28.705Z,13.10
2023-05-14T16:08:57.245Z,13.10
2023-05-14T16:11:25.722Z,13.10
2023-05-14T16:13:53.959Z,13.10
2023-05-14T16:16:23.322Z,13.10
2023-05-14T16:18:51.922Z,13.10
2023-05-14T16:21:20.418Z,13.10
2023-05-14T16:23:50.072Z,13.10
2023-05-14T16:26:18.560Z,13.10
2023-05-14T16:28:47.095Z,13.10
2023-05-14T16:31:15.876Z,13.10
2023-05-14T16:33:44.233Z,13.10
2023-05-14T16:36:12.676Z,13.10
2023-05-14T16:38:52.346Z,13.10
2023-05-14T16:41:30.849Z,13.10
2023-05-14T16:43:59.304Z,13.10
2023-05-14T16:46:28.305Z,13.10
2023-05-14T16:48:56.836Z,13.10
2023-05-14T16:51:25.251Z,13.10
2023-05-14T16:53:55.427Z,13.10
2023-05-14T16:56:24.173Z,13.10
2023-05-14T16:58:53.945Z,13.10
2023-05-14T17:01:22.515Z,13.10
2023-05-14T17:03:50.911Z,13.10
2023-05-14T17:06:19.343Z,13.10
2023-05-14T17:08:47.723Z,13.10
2023-05-14T17:11:16.202Z,13.10
2023-05-14T17:13:44.465Z,13.00
2023-05-14T17:16:14.304Z,13.00
2023-05-14T17:18:42.717Z,12.90
2023-05-14T17:21:11.121Z,12.90
2023-05-14T17:23:39.529Z,12.90
2023-05-14T17:26:08.104Z,12.80
2023-05-14T17:28:36.598Z,12.80
2023-05-14T17:31:05.034Z,12.70
2023-05-14T17:33:34.880Z,12.80
2023-05-14T17:36:03.669Z,12.70
2023-05-14T17:38:32.213Z,12.70
2023-05-14T17:41:00.751Z,12.70
2023-05-14T17:43:29.146Z,12.70
2023-05-14T17:45:57.640Z,12.70
2023-05-14T17:48:26.179Z,12.60
2023-05-14T17:50:55.946Z,12.60
2023-05-14T17:53:24.392Z,12.60
2023-05-14T17:55:52.851Z,12.60
2023-05-14T17:58:21.453Z,12.60
2023-05-14T18:00:49.961Z,12.60
2023-05-14T18:03:20.561Z,12.60
2023-05-14T18:05:49.143Z,12.60
2023-05-14T18:08:18.971Z,12.60
2023-05-14T18:10:47.334Z,12.50
2023-05-14T18:13:15.759Z,12.50
2023-05-14T18:15:44.249Z,12.50
2023-05-14T18:18:12.683Z,12.50
2023-05-14T18:20:41.068Z,12.60
2023-05-14T18:23:09.520Z,12.50
2023-05-14T18:25:39.621Z,12.50
2023-05-14T18:28:08.068Z,12.50
2023-05-14T18:30:36.726Z,12.50
2023-05-14T18:33:05.270Z,12.50
2023-05-14T18:35:33.753Z,12.50
2023-05-14T18:38:03.140Z,12.50
2023-05-14T18:40:31.602Z,12.50
2023-05-14T18:43:01.431Z,12.50
2023-05-14T18:45:29.957Z,12.50
2023-05-14T18:47:58.541Z,12.50
2023-05-14T18:50:27.061Z,12.50
2023-05-14T18:52:55.461Z,12.50
2023-05-14T18:55:24.252Z,12.50
2023-05-14T18:57:53.256Z,12.50
2023-05-14T19:00:23.192Z,12.50
2023-05-14T19:02:51.850Z,12.50
2023-05-14T19:05:20.430Z,12.50
2023-05-14T19:07:49.441Z,12.50
2023-05-14T19:10:17.856Z,12.50
2023-05-14T19:12:47.997Z,12.50
2023-05-14T19:15:16.440Z,12.50
2023-05-14T19:17:46.225Z,12.50
2023-05-14T19:20:14.684Z,12.50
2023-05-14T19:22:43.112Z,12.50
2023-05-14T19:25:12.490Z,12.60
2023-05-14T19:27:41.339Z,12.50
2023-05-14T19:30:10.349Z,12.50
2023-05-14T19:32:38.909Z,12.50
2023-05-14T19:35:09.263Z,12.50
2023-05-14T19:37:37.745Z,12.50
2023-05-14T19:40:07.218Z,12.60
2023-05-14T19:42:35.594Z,12.50
2023-05-14T19:45:04.172Z,12.50
2023-05-14T19:47:32.690Z,12.50
2023-05-14T19:50:01.179Z,12.50
2023-05-14T19:52:31.004Z,12.50
2023-05-14T19:54:59.416Z,12.50
2023-05-14T19:57:27.901Z,12.50
2023-05-14T19:59:56.347Z,12.50
2023-05-14T20:02:24.829Z,12.50
2023-05-14T20:04:55.618Z,12.50
2023-05-14T20:07:25.236Z,12.50
2023-05-14T20:09:54.978Z,12.50
2023-05-14T20:12:23.806Z,12.50
2023-05-14T20:14:52.208Z,12.50
2023-05-14T20:17:21.077Z,12.50
2023-05-14T20:19:49.497Z,12.50
2023-05-14T20:22:17.869Z,12.40
2023-05-14T20:24:46.403Z,12.50
2023-05-14T20:27:16.122Z,12.50
2023-05-14T20:29:45.411Z,12.40
2023-05-14T20:32:14.914Z,12.50
2023-05-14T20:34:43.284Z,12.40
2023-05-14T20:37:11.969Z,12.40
2023-05-14T20:39:40.510Z,12.50
2023-05-14T20:42:09.188Z,12.40
2023-05-14T20:44:38.883Z,12.40
2023-05-14T20:47:07.580Z,12.40
2023-05-14T20:49:36.156Z,12.50
2023-05-14T20:52:04.657Z,12.50
2023-05-14T20:54:33.116Z,12.50
2023-05-14T20:57:01.587Z,12.50
2023-05-14T20:59:30.260Z,12.50
2023-05-14T21:02:00.005Z,12.50
2023-05-14T21:04:28.610Z,12.50
2023-05-14T21:06:57.124Z,12.50
2023-05-14T21:09:27.286Z,12.50
2023-05-14T21:11:56.649Z,12.50
2023-05-14T21:14:25.148Z,12.50
2023-05-14T21:16:53.502Z,12.50
2023-05-14T21:19:24.549Z,12.40
2023-05-14T21:21:52.983Z,12.50
2023-05-14T21:24:21.375Z,12.50
2023-05-14T21:26:51.660Z,12.50
2023-05-14T21:29:21.380Z,12.50
2023-05-14T21:31:50.371Z,12.50
2023-05-14T21:34:18.945Z,12.50
2023-05-14T21:36:48.959Z,12.50
2023-05-14T21:39:17.404Z,12.50
2023-05-14T21:41:45.811Z,12.50
2023-05-14T21:44:14.232Z,12.50
2023-05-14T21:46:42.718Z,12.50
2023-05-14T21:49:11.154Z,12.50
2023-05-14T21:51:39.523Z,12.50
2023-05-14T21:54:09.555Z,12.40
2023-05-14T21:56:38.328Z,12.50
2023-05-14T21:59:06.745Z,12.50
2023-05-14T22:01:45.891Z,12.50
2023-05-14T22:04:23.475Z,12.50
2023-05-14T22:06:52.040Z,12.50
2023-05-14T22:09:21.771Z,12.50
2023-05-14T22:11:50.178Z,12.50
2023-05-14T22:14:18.738Z,12.50
2023-05-14T22:16:47.266Z,12.50
2023-05-14T22:19:17.597Z,12.50
2023-05-14T22:21:46.297Z,12.50
2023-05-14T22:24:14.759Z,12.50
2023-05-14T22:26:44.727Z,12.50
2023-05-14T22:29:13.068Z,12.50
2023-05-14T22:31:41.535Z,12.50
2023-05-14T22:34:10.564Z,12.50
2023-05-14T22:36:39.035Z,12.50
2023-05-14T22:39:07.374Z,12.50
2023-05-14T22:41:36.914Z,12.50
2023-05-14T22:44:06.572Z,12.50
2023-05-14T22:46:35.130Z,12.50
2023-05-14T22:49:03.635Z,12.50
2023-05-14T22:51:31.945Z,12.50
2023-05-14T22:54:00.398Z,12.50
2023-05-14T22:56:29.459Z,12.50
2023-05-14T22:58:58.279Z,12.50
2023-05-14T23:01:28.141Z,12.50
2023-05-14T23:03:56.782Z,12.50
2023-05-14T23:06:26.292Z,12.50
2023-05-14T23:08:54.631Z,12.50
2023-05-14T23:11:23.046Z,12.50
2023-05-14T23:13:51.666Z,12.50
2023-05-14T23:16:20.559Z,12.50
2023-05-14T23:18:50.702Z,12.50
2023-05-14T23:21:19.247Z,12.50
2023-05-14T23:23:48.695Z,12.50
2023-05-14T23:26:17.003Z,12.50
2023-05-14T23:28:47.469Z,12.50
2023-05-14T23:31:16.097Z,12.50
2023-05-14T23:33:46.388Z,12.50
2023-05-14T23:36:16.298Z,12.50
2023-05-14T23:38:44.738Z,12.50
2023-05-14T23:41:13.212Z,12.50
2023-05-14T23:43:41.640Z,12.50
2023-05-14T23:46:10.330Z,12.50
2023-05-14T23:48:38.823Z,12.50
2023-05-14T23:51:07.332Z,12.50
2023-05-14T23:53:37.466Z,12.50
2023-05-14T23:56:06.135Z,12.50
2023-05-14T23:58:34.542Z,12.50
